createdAt,value
2022-12-31T00:02:00.274Z,100310.81
2022-12-31T00:04:29.900Z,100312.91
2022-12-31T00:06:59.428Z,100316.38
2022-12-31T00:09:28.970Z,100325.13
2022-12-31T00:11:58.531Z,100319.59
2022-12-31T00:14:28.092Z,100315.91
2022-12-31T00:16:57.646Z,100320.97
2022-12-31T00:19:27.201Z,100320.13
2022-12-31T00:21:56.830Z,100321.31
2022-12-31T00:24:31.101Z,100319.66
2022-12-31T00:27:00.750Z,100323.22
2022-12-31T00:29:30.340Z,100321.75
2022-12-31T00:31:59.884Z,100328.53
2022-12-31T00:34:29.423Z,100328.72
2022-12-31T00:36:59.005Z,100326.56
2022-12-31T00:39:28.621Z,100323.22
2022-12-31T00:41:58.183Z,100322.00
2022-12-31T00:44:27.725Z,100327.63
2022-12-31T00:46:57.236Z,100335.97
2022-12-31T00:49:26.734Z,100325.78
2022-12-31T00:51:56.227Z,100331.28
2022-12-31T00:54:25.803Z,100328.34
2022-12-31T00:56:55.440Z,100331.28
2022-12-31T00:59:25.122Z,100332.31
2022-12-31T01:01:54.795Z,100326.75
2022-12-31T01:04:24.373Z,100334.63
2022-12-31T01:06:53.968Z,100337.97
2022-12-31T01:09:23.593Z,100357.25
2022-12-31T01:11:53.265Z,100352.25
2022-12-31T01:14:23.057Z,100348.56
2022-12-31T01:16:54.473Z,100334.53
2022-12-31T01:19:29.171Z,100343.72
2022-12-31T01:21:58.702Z,100338.03
2022-12-31T01:24:28.245Z,100336.72
2022-12-31T01:26:58.058Z,100344.00
2022-12-31T01:29:27.777Z,100333.22
2022-12-31T01:31:57.326Z,100340.16
2022-12-31T01:34:26.907Z,100340.78
2022-12-31T01:36:56.431Z,100343.44
2022-12-31T01:39:26.102Z,100342.16
2022-12-31T01:41:55.760Z,100339.00
2022-12-31T01:44:27.954Z,100341.16
2022-12-31T01:47:02.681Z,100353.81
2022-12-31T01:49:53.556Z,100340.47
2022-12-31T01:52:37.498Z,100339.38
2022-12-31T01:55:20.282Z,100331.75
2022-12-31T01:57:57.557Z,100336.84
2022-12-31T02:00:27.354Z,100335.09
2022-12-31T02:02:56.899Z,100337.13
2022-12-31T02:05:48.257Z,100346.31
2022-12-31T02:08:18.307Z,100357.81
2022-12-31T02:10:47.781Z,100353.53
2022-12-31T02:13:17.537Z,100339.94
2022-12-31T02:16:17.504Z,100344.50
2022-12-31T02:19:32.782Z,100354.41
2022-12-31T02:22:45.410Z,100345.19
2022-12-31T02:26:01.479Z,100354.22
2022-12-31T02:29:21.382Z,100343.56
2022-12-31T02:31:58.051Z,100345.16
2022-12-31T02:34:50.824Z,100338.41
2022-12-31T02:37:23.658Z,100340.03
2022-12-31T02:39:53.886Z,100344.72
2022-12-31T02:42:23.441Z,100342.81
2022-12-31T02:44:53.076Z,100344.16
2022-12-31T02:48:31.752Z,100341.09
2022-12-31T02:51:46.894Z,100348.50
2022-12-31T02:55:00.073Z,100347.88
2022-12-31T02:57:54.886Z,100347.81
2022-12-31T03:00:43.428Z,100343.47
2022-12-31T03:03:13.099Z,100344.59
2022-12-31T03:05:44.269Z,100352.50
2022-12-31T03:08:23.798Z,100356.78
2022-12-31T03:10:53.396Z,100354.78
2022-12-31T03:13:22.115Z,100349.47
2022-12-31T03:15:51.685Z,100346.16
2022-12-31T03:18:41.371Z,100334.56
2022-12-31T03:21:32.354Z,100328.47
2022-12-31T03:24:20.374Z,100324.66
2022-12-31T03:26:49.937Z,100334.25
2022-12-31T03:29:19.436Z,100336.06
2022-12-31T03:31:48.937Z,100341.56
2022-12-31T03:34:18.457Z,100332.72
2022-12-31T03:36:47.977Z,100323.69
2022-12-31T03:39:17.491Z,100323.53
2022-12-31T03:41:47.097Z,100325.81
2022-12-31T03:44:16.640Z,100332.84
2022-12-31T03:46:46.156Z,100327.88
2022-12-31T03:49:15.905Z,100330.59
2022-12-31T03:51:45.369Z,100331.97
2022-12-31T03:54:14.901Z,100339.72
2022-12-31T03:56:44.447Z,100348.59
2022-12-31T03:59:14.035Z,100348.28
2022-12-31T04:01:43.617Z,100355.94
2022-12-31T04:04:13.194Z,100345.41
2022-12-31T04:06:42.734Z,100363.13
2022-12-31T04:09:12.277Z,100360.53
2022-12-31T04:11:41.857Z,100346.78
2022-12-31T04:14:11.906Z,100335.97
2022-12-31T04:16:41.541Z,100347.94
2022-12-31T04:19:12.419Z,100343.44
2022-12-31T04:21:42.043Z,100348.22
2022-12-31T04:24:11.708Z,100340.41
2022-12-31T04:26:41.376Z,100335.03
2022-12-31T04:29:12.092Z,100335.91
2022-12-31T04:31:41.773Z,100333.06
2022-12-31T04:34:11.485Z,100334.94
2022-12-31T04:36:41.051Z,100342.69
2022-12-31T04:39:10.605Z,100353.75
2022-12-31T04:41:40.136Z,100363.56
2022-12-31T04:44:09.865Z,100368.69
2022-12-31T04:46:39.565Z,100369.31
2022-12-31T04:49:09.482Z,100361.25
2022-12-31T04:51:39.675Z,100357.53
2022-12-31T04:54:08.452Z,100362.78
2022-12-31T04:56:38.067Z,100367.00
2022-12-31T04:59:08.969Z,100372.75
2022-12-31T05:01:39.633Z,100382.97
2022-12-31T05:04:09.247Z,100381.13
2022-12-31T05:06:38.836Z,100380.47
2022-12-31T05:09:08.352Z,100366.44
2022-12-31T05:11:38.273Z,100372.91
2022-12-31T05:14:07.765Z,100378.41
2022-12-31T05:16:37.332Z,100373.53
2022-12-31T05:19:09.656Z,100388.34
2022-12-31T05:21:39.496Z,100385.63
2022-12-31T05:24:09.199Z,100389.06
2022-12-31T05:26:38.659Z,100392.72
2022-12-31T05:29:08.680Z,100387.91
2022-12-31T05:31:38.171Z,100392.19
2022-12-31T05:34:07.615Z,100388.75
2022-12-31T05:36:37.073Z,100391.88
2022-12-31T05:39:06.559Z,100397.94
2022-12-31T05:41:36.411Z,100392.44
2022-12-31T05:44:05.993Z,100390.50
2022-12-31T05:46:35.530Z,100393.47
2022-12-31T05:49:05.112Z,100400.41
2022-12-31T05:51:34.731Z,100406.69
2022-12-31T05:54:04.584Z,100416.88
2022-12-31T05:56:34.077Z,100420.56
2022-12-31T05:59:03.625Z,100421.03
2022-12-31T06:01:33.110Z,100407.41
2022-12-31T06:04:02.729Z,100410.28
2022-12-31T06:06:32.728Z,100411.25
2022-12-31T06:09:03.482Z,100406.59
2022-12-31T06:11:32.994Z,100408.44
2022-12-31T06:14:02.845Z,100417.41
2022-12-31T06:16:32.366Z,100420.19
2022-12-31T06:19:02.879Z,100421.44
2022-12-31T06:21:32.462Z,100429.25
2022-12-31T06:24:01.928Z,100419.00
2022-12-31T06:26:31.360Z,100423.34
2022-12-31T06:29:00.885Z,100432.66
2022-12-31T06:31:30.565Z,100431.13
2022-12-31T06:34:00.125Z,100436.63
2022-12-31T06:36:30.652Z,100433.28
2022-12-31T06:39:00.344Z,100449.56
2022-12-31T06:41:32.522Z,100459.19
2022-12-31T06:44:02.076Z,100459.84
2022-12-31T06:46:31.755Z,100461.16
2022-12-31T06:49:01.264Z,100464.00
2022-12-31T06:51:30.887Z,100461.16
2022-12-31T06:54:00.366Z,100453.69
2022-12-31T06:56:34.381Z,100462.50
2022-12-31T06:59:05.641Z,100468.59
2022-12-31T07:02:27.418Z,100476.56
2022-12-31T07:05:41.043Z,100470.41
2022-12-31T07:08:52.464Z,100488.16
2022-12-31T07:11:30.681Z,100493.91
2022-12-31T07:14:46.897Z,100491.94
2022-12-31T07:17:58.161Z,100489.75
2022-12-31T07:20:28.538Z,100492.34
2022-12-31T07:22:58.563Z,100488.91
2022-12-31T07:25:28.750Z,100497.59
2022-12-31T07:29:04.699Z,100490.47
2022-12-31T07:32:21.584Z,100495.00
2022-12-31T07:34:59.678Z,100498.53
2022-12-31T07:38:29.193Z,100513.38
2022-12-31T07:41:47.223Z,100509.00
2022-12-31T07:44:40.555Z,100522.03
2022-12-31T07:47:23.865Z,100514.13
2022-12-31T07:49:55.001Z,100520.34
2022-12-31T07:52:25.508Z,100504.78
2022-12-31T07:54:55.067Z,100508.28
2022-12-31T07:57:33.832Z,100497.94
2022-12-31T08:00:16.111Z,100486.16
2022-12-31T08:03:59.342Z,100502.22
2022-12-31T08:07:06.667Z,100510.88
2022-12-31T08:10:23.532Z,100520.91
2022-12-31T08:13:02.482Z,100520.66
2022-12-31T08:15:32.476Z,100518.38
2022-12-31T08:18:02.378Z,100512.28
2022-12-31T08:20:36.684Z,100517.78
2022-12-31T08:24:14.023Z,100526.56
2022-12-31T08:27:17.273Z,100513.88
2022-12-31T08:30:12.584Z,100515.53
2022-12-31T08:33:40.599Z,100519.41
2022-12-31T08:36:57.120Z,100507.91
2022-12-31T08:40:02.968Z,100525.34
2022-12-31T08:43:07.850Z,100531.97
2022-12-31T08:45:52.425Z,100524.84
2022-12-31T08:48:43.245Z,100537.53
2022-12-31T08:51:22.338Z,100537.91
2022-12-31T08:53:53.537Z,100545.91
2022-12-31T08:56:42.009Z,100547.31
2022-12-31T08:59:46.163Z,100554.81
2022-12-31T09:03:28.675Z,100563.16
2022-12-31T09:06:21.257Z,100561.31
2022-12-31T09:09:39.108Z,100567.53
2022-12-31T09:12:29.442Z,100566.09
2022-12-31T09:15:21.675Z,100567.38
2022-12-31T09:17:52.625Z,100566.47
2022-12-31T09:20:42.681Z,100575.34
2022-12-31T09:23:14.530Z,100573.63
2022-12-31T09:26:39.525Z,100592.34
2022-12-31T09:29:51.288Z,100590.22
2022-12-31T09:33:00.773Z,100593.25
2022-12-31T09:35:57.116Z,100579.56
2022-12-31T09:38:53.262Z,100578.47
2022-12-31T09:42:28.999Z,100574.31
2022-12-31T09:46:01.167Z,100564.22
2022-12-31T09:49:01.115Z,100567.81
2022-12-31T09:52:07.696Z,100583.63
2022-12-31T09:55:22.950Z,100569.84
2022-12-31T09:58:35.289Z,100559.69
2022-12-31T10:01:24.881Z,100559.19
2022-12-31T10:04:43.759Z,100567.63
2022-12-31T10:07:33.936Z,100552.69
2022-12-31T10:10:13.886Z,100552.59
2022-12-31T10:13:41.500Z,100542.19
2022-12-31T10:16:32.083Z,100541.66
2022-12-31T10:19:35.878Z,100526.91
2022-12-31T10:22:45.194Z,100517.56
2022-12-31T10:26:12.544Z,100526.63
2022-12-31T10:29:19.392Z,100514.75
2022-12-31T10:32:17.888Z,100512.78
2022-12-31T10:35:46.109Z,100509.47
2022-12-31T10:39:00.767Z,100505.66
2022-12-31T10:42:05.655Z,100503.06
2022-12-31T10:45:15.587Z,100517.50
2022-12-31T10:48:32.300Z,100531.03
2022-12-31T10:51:32.217Z,100530.28
2022-12-31T10:54:45.212Z,100523.66
2022-12-31T10:57:44.494Z,100526.25
2022-12-31T11:00:25.234Z,100532.31
2022-12-31T11:03:45.697Z,100536.44
2022-12-31T11:07:03.523Z,100530.53
2022-12-31T11:09:55.248Z,100526.84
2022-12-31T11:13:02.865Z,100531.22
2022-12-31T11:16:47.862Z,100519.75
2022-12-31T11:20:01.517Z,100521.75
2022-12-31T11:23:01.018Z,100513.19
2022-12-31T11:26:35.094Z,100502.81
2022-12-31T11:29:22.364Z,100488.91
2022-12-31T11:32:36.608Z,100485.41
2022-12-31T11:35:52.591Z,100497.91
2022-12-31T11:38:51.662Z,100492.91
2022-12-31T11:42:14.523Z,100491.16
2022-12-31T11:45:15.791Z,100499.63
2022-12-31T11:48:30.240Z,100510.31
2022-12-31T11:51:50.217Z,100517.66
2022-12-31T11:55:00.721Z,100517.50
2022-12-31T11:57:42.965Z,100512.72
2022-12-31T12:00:23.231Z,100520.69
2022-12-31T12:03:01.750Z,100514.72
2022-12-31T12:05:32.700Z,100515.97
2022-12-31T12:08:03.027Z,100519.91
2022-12-31T12:11:08.199Z,100531.69
2022-12-31T12:13:37.660Z,100525.69
2022-12-31T12:16:09.157Z,100517.22
2022-12-31T12:18:49.105Z,100508.03
2022-12-31T12:21:24.607Z,100508.88
2022-12-31T12:24:14.676Z,100504.38
2022-12-31T12:26:45.656Z,100499.38
2022-12-31T12:29:23.747Z,100505.13
2022-12-31T12:32:16.885Z,100516.63
2022-12-31T12:34:49.908Z,100516.63
2022-12-31T12:37:33.276Z,100526.19
2022-12-31T12:40:33.423Z,100506.59
2022-12-31T12:43:04.182Z,100520.44
2022-12-31T12:45:52.067Z,100512.97
2022-12-31T12:48:39.790Z,100513.84
2022-12-31T12:51:48.739Z,100520.34
2022-12-31T12:55:18.620Z,100520.72
2022-12-31T12:58:19.392Z,100500.44
2022-12-31T13:01:37.430Z,100504.28
2022-12-31T13:05:02.401Z,100495.06
2022-12-31T13:07:56.430Z,100491.19
2022-12-31T13:10:42.084Z,100489.53
2022-12-31T13:13:30.799Z,100505.53
2022-12-31T13:16:22.578Z,100498.56
2022-12-31T13:19:39.922Z,100503.09
2022-12-31T13:22:38.312Z,100497.91
2022-12-31T13:25:31.640Z,100502.00
2022-12-31T13:28:12.400Z,100507.47
2022-12-31T13:31:09.905Z,100510.72
2022-12-31T13:33:54.832Z,100524.09
2022-12-31T13:36:27.840Z,100528.47
2022-12-31T13:39:03.132Z,100524.16
2022-12-31T13:41:53.985Z,100529.31
2022-12-31T13:44:46.312Z,100527.69
2022-12-31T13:48:05.770Z,100513.84
2022-12-31T13:50:53.159Z,100531.28
2022-12-31T13:54:07.515Z,100532.13
2022-12-31T13:56:39.923Z,100544.28
2022-12-31T13:59:29.985Z,100536.50
2022-12-31T14:03:05.142Z,100531.28
2022-12-31T14:06:15.359Z,100534.97
2022-12-31T14:08:46.194Z,100538.59
2022-12-31T14:11:58.681Z,100535.53
2022-12-31T14:15:00.238Z,100534.13
2022-12-31T14:18:06.278Z,100536.97
2022-12-31T14:21:45.100Z,100533.03
2022-12-31T14:24:37.683Z,100540.47
2022-12-31T14:27:37.467Z,100548.69
2022-12-31T14:30:20.791Z,100547.22
2022-12-31T14:33:58.196Z,100536.41
2022-12-31T14:37:00.102Z,100551.28
2022-12-31T14:40:11.546Z,100549.00
2022-12-31T14:43:20.528Z,100552.13
2022-12-31T14:46:31.877Z,100544.91
2022-12-31T14:50:05.678Z,100536.09
2022-12-31T14:52:52.854Z,100529.88
2022-12-31T14:55:36.599Z,100528.44
2022-12-31T14:58:31.665Z,100521.97
2022-12-31T15:01:22.460Z,100553.31
2022-12-31T15:03:57.525Z,100539.34
2022-12-31T15:06:55.174Z,100541.63
2022-12-31T15:10:23.182Z,100537.72
2022-12-31T15:13:56.648Z,100543.16
2022-12-31T15:16:47.253Z,100537.66
2022-12-31T15:19:39.519Z,100530.38
2022-12-31T15:22:47.736Z,100540.09
2022-12-31T15:25:41.558Z,100554.56
2022-12-31T15:28:39.822Z,100548.09
2022-12-31T15:31:20.473Z,100560.13
2022-12-31T15:34:01.190Z,100555.47
2022-12-31T15:36:39.480Z,100561.06
2022-12-31T15:39:13.352Z,100573.25
2022-12-31T15:42:18.636Z,100570.22
2022-12-31T15:45:00.070Z,100575.81
2022-12-31T15:47:43.041Z,100571.41
2022-12-31T15:50:22.127Z,100572.97
2022-12-31T15:53:02.251Z,100577.28
2022-12-31T15:55:49.503Z,100583.00
2022-12-31T15:58:30.463Z,100593.16
2022-12-31T16:01:34.418Z,100588.88
2022-12-31T16:04:42.722Z,100588.28
2022-12-31T16:07:13.436Z,100576.66
2022-12-31T16:09:45.248Z,100574.19
2022-12-31T16:12:27.853Z,100574.59
2022-12-31T16:15:03.272Z,100573.63
2022-12-31T16:17:39.862Z,100570.66
2022-12-31T16:20:30.220Z,100564.28
2022-12-31T16:23:03.170Z,100568.31
2022-12-31T16:25:34.241Z,100572.88
2022-12-31T16:28:05.071Z,100562.41
2022-12-31T16:30:38.519Z,100568.72
2022-12-31T16:33:15.404Z,100571.59
2022-12-31T16:36:00.866Z,100576.06
2022-12-31T16:38:37.947Z,100592.03
2022-12-31T16:41:24.559Z,100586.09
2022-12-31T16:43:52.650Z,100585.00
2022-12-31T16:46:31.045Z,100575.97
2022-12-31T16:49:20.025Z,100577.19
2022-12-31T16:51:49.819Z,100578.28
2022-12-31T16:54:38.396Z,100589.94
2022-12-31T16:57:11.138Z,100581.91
2022-12-31T16:59:46.485Z,100581.69
2022-12-31T17:02:27.467Z,100582.47
2022-12-31T17:04:57.234Z,100568.22
2022-12-31T17:07:29.621Z,100569.63
2022-12-31T17:10:22.646Z,100589.97
2022-12-31T17:15:53.920Z,100607.66
2022-12-31T17:18:28.930Z,100613.06
2022-12-31T17:21:10.204Z,100602.44
2022-12-31T17:23:41.746Z,100588.81
2022-12-31T17:26:21.085Z,100585.22
2022-12-31T17:28:53.906Z,100583.31
2022-12-31T17:31:40.484Z,100591.66
2022-12-31T17:34:14.029Z,100590.56
2022-12-31T17:37:11.574Z,100590.53
2022-12-31T17:39:55.070Z,100601.28
2022-12-31T17:42:38.358Z,100597.16
2022-12-31T17:45:21.296Z,100591.41
2022-12-31T17:47:54.057Z,100588.44
2022-12-31T17:50:28.643Z,100590.19
2022-12-31T17:53:11.294Z,100601.50
2022-12-31T17:55:45.587Z,100605.13
2022-12-31T17:58:29.756Z,100619.00
2022-12-31T18:01:00.889Z,100615.91
2022-12-31T18:03:29.125Z,100617.56
2022-12-31T18:05:59.009Z,100612.56
2022-12-31T18:08:30.417Z,100605.09
2022-12-31T18:11:00.184Z,100614.28
2022-12-31T18:13:30.923Z,100616.66
2022-12-31T18:16:00.647Z,100614.00
2022-12-31T18:18:37.501Z,100616.97
2022-12-31T18:21:28.394Z,100618.94
2022-12-31T18:26:34.859Z,100613.47
2022-12-31T18:29:19.573Z,100598.72
2022-12-31T18:31:50.666Z,100607.53
2022-12-31T18:34:20.404Z,100609.84
2022-12-31T18:36:52.096Z,100605.38
2022-12-31T18:39:21.847Z,100601.28
2022-12-31T18:41:52.281Z,100600.31
2022-12-31T18:44:21.014Z,100607.22
2022-12-31T18:46:53.166Z,100604.34
2022-12-31T18:49:22.976Z,100614.31
2022-12-31T18:51:54.368Z,100617.25
2022-12-31T18:54:24.954Z,100635.19
2022-12-31T18:56:57.180Z,100635.38
2022-12-31T18:59:28.015Z,100638.69
2022-12-31T19:01:59.012Z,100633.72
2022-12-31T19:04:28.737Z,100639.03
2022-12-31T19:06:59.267Z,100629.69
2022-12-31T19:09:45.967Z,100628.97
2022-12-31T19:12:15.676Z,100632.22
2022-12-31T19:14:46.237Z,100634.38
2022-12-31T19:17:17.692Z,100628.13
2022-12-31T19:19:49.115Z,100623.53
2022-12-31T19:22:16.944Z,100627.00
2022-12-31T19:24:48.343Z,100626.72
2022-12-31T19:27:17.140Z,100628.41
2022-12-31T19:29:45.005Z,100622.44
2022-12-31T19:32:14.616Z,100629.47
2022-12-31T19:34:44.263Z,100618.03
2022-12-31T19:37:16.340Z,100623.47
2022-12-31T19:39:48.097Z,100622.63
2022-12-31T19:42:17.790Z,100617.94
2022-12-31T19:44:45.587Z,100613.69
2022-12-31T19:47:15.284Z,100621.41
2022-12-31T19:49:45.044Z,100618.25
2022-12-31T19:52:14.617Z,100623.56
2022-12-31T19:54:42.487Z,100628.03
2022-12-31T19:57:10.316Z,100628.88
2022-12-31T19:59:40.049Z,100621.81
2022-12-31T20:02:11.142Z,100610.91
2022-12-31T20:04:40.964Z,100625.00
2022-12-31T20:07:10.697Z,100630.97
2022-12-31T20:09:40.305Z,100630.13
2022-12-31T20:12:09.093Z,100634.59
2022-12-31T20:14:38.758Z,100631.94
2022-12-31T20:17:09.381Z,100626.19
2022-12-31T20:19:40.119Z,100615.81
2022-12-31T20:22:09.747Z,100604.47
2022-12-31T20:24:39.991Z,100605.63
2022-12-31T20:27:18.079Z,100602.19
2022-12-31T20:29:48.154Z,100609.19
2022-12-31T20:32:17.772Z,100607.41
2022-12-31T20:34:49.210Z,100614.50
2022-12-31T20:37:17.129Z,100613.31
2022-12-31T20:39:46.749Z,100616.91
2022-12-31T20:42:16.374Z,100618.91
2022-12-31T20:44:46.819Z,100605.94
2022-12-31T20:47:18.389Z,100596.47
2022-12-31T20:52:37.661Z,100583.81
2022-12-31T20:55:09.688Z,100592.22
2022-12-31T20:57:40.052Z,100595.47
2022-12-31T21:00:11.023Z,100592.28
2022-12-31T21:02:42.455Z,100585.25
2022-12-31T21:05:13.019Z,100590.00
2022-12-31T21:07:42.753Z,100587.03
2022-12-31T21:10:10.838Z,100600.09
2022-12-31T21:12:44.620Z,100595.56
2022-12-31T21:15:14.663Z,100608.22
2022-12-31T21:17:46.711Z,100619.28
2022-12-31T21:20:16.816Z,100609.22
2022-12-31T21:22:46.457Z,100625.09
2022-12-31T21:25:14.277Z,100614.41
2022-12-31T21:27:44.825Z,100621.00
2022-12-31T21:30:19.589Z,100615.38
2022-12-31T21:32:49.745Z,100618.63
2022-12-31T21:38:09.824Z,100624.88
2022-12-31T21:40:39.525Z,100629.00
2022-12-31T21:43:10.014Z,100617.56
2022-12-31T21:45:38.272Z,100625.63
2022-12-31T21:48:26.019Z,100614.97
2022-12-31T21:51:13.013Z,100616.75
2022-12-31T21:53:42.718Z,100620.44
2022-12-31T21:56:14.768Z,100609.13
2022-12-31T21:59:15.456Z,100621.22
2022-12-31T22:02:03.692Z,100622.97
2022-12-31T22:05:01.461Z,100622.38
2022-12-31T22:07:23.047Z,100629.41
2022-12-31T22:09:53.500Z,100636.88
2022-12-31T22:12:24.096Z,100636.97
2022-12-31T22:15:14.524Z,100652.13
2022-12-31T22:17:43.346Z,100648.50
2022-12-31T22:20:29.363Z,100646.53
2022-12-31T22:22:57.390Z,100652.88
2022-12-31T22:25:28.850Z,100640.88
2022-12-31T22:28:36.354Z,100629.34
2022-12-31T22:30:49.767Z,100638.47
2022-12-31T22:33:20.318Z,100628.66
2022-12-31T22:36:14.503Z,100627.50
2022-12-31T22:38:43.302Z,100628.66
2022-12-31T22:41:17.221Z,100636.06
2022-12-31T22:43:51.460Z,100636.69
2022-12-31T22:46:28.007Z,100639.72
2022-12-31T22:48:59.607Z,100636.41
2022-12-31T22:51:56.903Z,100626.09
2022-12-31T22:54:22.163Z,100621.19
2022-12-31T22:56:49.942Z,100618.84
2022-12-31T22:59:19.666Z,100613.31
2022-12-31T23:01:49.315Z,100609.59
2022-12-31T23:04:19.068Z,100597.94
2022-12-31T23:06:48.968Z,100595.78
2022-12-31T23:09:37.909Z,100598.97
2022-12-31T23:12:11.175Z,100599.66
2022-12-31T23:15:11.197Z,100590.81
2022-12-31T23:18:06.281Z,100594.53
2022-12-31T23:20:54.319Z,100598.00
2022-12-31T23:23:25.851Z,100606.22
2022-12-31T23:26:02.322Z,100601.13
2022-12-31T23:28:30.233Z,100620.59
2022-12-31T23:31:07.393Z,100627.78
2022-12-31T23:33:35.329Z,100637.41
2022-12-31T23:36:07.891Z,100642.63
2022-12-31T23:38:37.593Z,100634.78
2022-12-31T23:41:18.697Z,100634.13
2022-12-31T23:43:50.076Z,100636.13
2022-12-31T23:46:19.861Z,100635.22
2022-12-31T23:48:49.882Z,100635.31
2022-12-31T23:51:22.011Z,100634.28
2022-12-31T23:53:53.431Z,100630.53
2022-12-31T23:56:24.222Z,100624.59
2022-12-31T23:58:59.255Z,100637.63
